Aérodrome :
LOGIN :

S'inscrire | Disclaimer

   EN    FR    IT 

 










Légende :    VFR   VFR Marginal   IFR   IFR Intensif   IFR Très Intensif
Visi : 
Plafond : 
>= 8 km
>= 3000ft
5 à 8 km
1000 à 3000 ft
1500m à 5 km
500 à 1000 ft
800 à 1500m
200 à 500 ft
< 800m
< 200 ft
Symboles :   Orages  Brouillard  Fortes neiges  Fortes précipitations  Vent > 20 kt
SIGMETs :   Divers  Orages  Givrage  Turbulence  Onde Orograph.  Cendres Volcan.







- Altitude de l'aérodrome : 1682 ft
- Code IATA : VIT


LEVT - Vitoria Gasteiz

DERNIER METAR :
  • 241100Z 32013KT 8000 FEW010 BKN019 12/09 Q1021

METARs EXPIRÉS :
  • 241030Z 32012KT 9999 FEW010 BKN019 12/09 Q1021
  • 241000Z 33008KT 290V360 9999 FEW010 BKN019 12/09 Q1021
  • 240930Z 32009KT 280V360 9999 FEW008 BKN020 12/09 Q1021
  • 240900Z 32010KT 290V360 9999 FEW008 BKN018 12/09 Q1021
  • 240830Z 33007KT 300V020 9999 FEW008 OVC018 12/09 Q1021

TAF TAF LEVT
Valide du 24 à 06h jusqu'au 25 à 06h UTC


240500Z 2406/2506 34007KT 9999 SCT010 BKN025 TX17/2414Z TN06/2506Z
PROB30
TEMPO 2406/2506 3000 -RADZ
TEMPO 2411/2419 01015G25KT
TEMPO 2421/2506 BKN010
Pas de NOTAMs connus pour ce terrain.
2 SIGMETs publiés pour la FIR Madrid (LECM) :
 
Orages noyés dans la masse
LECM SIGMET 6 VALID 240930/241130 LEVA
LECM MADRID FIR/UIR EMBD TS OBS AT 0930Z WI N4113 W00037 - N3938 W00105 - N3948 W00208 - N4129 W00131 - N4113 W00037 TOP FL320 MOV E NC=
Turbulence forte
LECM SIGMET 4 VALID 240800/241200 LEVA
LECM MADRID UIR SEV TURB FCST WI N4347 W00234 - N4155 W00334 - N4119 W00148 - N4253 W00047 - N4347 W00234 FL250/340 MOV E WKN=



MET'MAP, la Météo Aéronautique d'un coup d'oeil ! - Copyright ORBIFLY Décembre 2007 - Disclaimer

ORBIFLY MET'MAP TEAM :

Programmation & Développement : Alexandra Zaïnal
Conception & Développement : Baudouin d'Aumeries
Co-Programmation & Développement : Marc-Olivier Méhu
Soutien technique & logistique : Manuel Goepfert

Contact : metmap@orbifly.com




SOURCES & CREDITS :

   NOAA